Impacts METAR Board INFO
IDs:

KMSP - Minneapolis-St Paul, MN, US

Updated at: 0204 UTC 22 Jan 2018
Potential Impact None Slight Moderate High
Time21/14Z 21/15Z 21/16Z 21/17Z 21/18Z 21/19Z 21/20Z 21/21Z 21/22Z 21/23Z 22/00Z 22/01Z 22/02Z
VIS10 10 10 10 10 10 10 10 10 10 10 10 10
CIG85 80 75 75 75 75 80 80 85 85 90 95 95
CoverOVCBKNOVCOVCOVCOVCOVCOVCOVCOVCOVCOVCOVC
FltCatVFRVFRVFRVFRVFRVFRVFRVFRVFRVFRVFRVFRVFR
WX--------------------------
WDir2006050203603503601020302020
WSpd5 3 3 4 5 6 7 8 8 6 7 8 9
WGst-- -- -- -- -- -- -- -- -- -- -- 19 --
Raw hourly METARs
KMSP 211353Z 02005KT 10SM OVC085 01/M01 A2997 RMK AO2 SLP156 T00111011
KMSP 211453Z VRB03KT 10SM BKN080 BKN100 02/M01 A2998 RMK AO2 SLP159 VIRGA T00171011 51008
KMSP 211553Z 06003KT 10SM BKN075 OVC200 02/M01 A2999 RMK AO2 SLP162 VIRGA T00221011
KMSP 211653Z 05004KT 10SM OVC075 03/M01 A2998 RMK AO2 SLP161 T00281006
KMSP 211753Z 02005KT 10SM OVC075 03/M01 A2996 RMK AO2 SLP153 4/001 T00331006 10033 20011 58006
KMSP 211853Z 36006KT 10SM OVC075 04/M01 A2995 RMK AO2 SLP151 T00391006
KMSP 211953Z 35007KT 10SM OVC080 03/M01 A2994 RMK AO2 SLP147 T00331006
KMSP 212053Z 36008KT 10SM OVC080 03/M01 A2995 RMK AO2 SLP148 T00331011 55005
KMSP 212153Z 01008KT 10SM OVC085 03/M01 A2995 RMK AO2 SLP149 T00281011
KMSP 212253Z 02006KT 10SM OVC085 03/M01 A2994 RMK AO2 SLP149 T00281011
KMSP 212353Z 03007KT 10SM OVC090 03/M01 A2995 RMK AO2 SLP149 4/001 T00281011 10039 20028 53001
KMSP 220053Z 02008G19KT 10SM OVC095 02/M01 A2995 RMK AO2 SLP150 T00221011
KMSP 220153Z 02009KT 10SM OVC095 02/M01 A2996 RMK AO2 SLP154 T00221011